createdAt,value
2019-02-21T00:00:58.808Z,101497.59
2019-02-21T00:03:27.804Z,101504.69
2019-02-21T00:05:56.773Z,101512.81
2019-02-21T00:08:25.621Z,101515.52
2019-02-21T00:10:54.544Z,101505.91
2019-02-21T00:13:23.561Z,101513.68
2019-02-21T00:15:52.502Z,101520.31
2019-02-21T00:18:21.447Z,101513.98
2019-02-21T00:20:50.368Z,101511.51
2019-02-21T00:23:19.163Z,101516.39
2019-02-21T00:25:48.143Z,101519.58
2019-02-21T00:28:17.010Z,101519.10
2019-02-21T00:30:45.867Z,101521.75
2019-02-21T00:33:14.754Z,101517.97
2019-02-21T00:35:43.669Z,101518.36
2019-02-21T00:38:12.566Z,101522.97
2019-02-21T00:40:41.493Z,101516.97
2019-02-21T00:43:10.400Z,101513.73
2019-02-21T00:45:39.259Z,101517.58
2019-02-21T00:48:08.134Z,101522.74
2019-02-21T00:50:36.921Z,101519.50
2019-02-21T00:53:05.894Z,101524.92
2019-02-21T00:55:34.741Z,101524.56
2019-02-21T00:58:03.631Z,101524.70
2019-02-21T01:00:32.612Z,101522.63
2019-02-21T01:03:01.603Z,101519.98
2019-02-21T01:05:30.524Z,101529.48
2019-02-21T01:07:59.499Z,101525.77
2019-02-21T01:10:28.714Z,101516.27
2019-02-21T01:12:57.606Z,101521.56
2019-02-21T01:15:26.516Z,101521.78
2019-02-21T01:17:55.436Z,101525.17
2019-02-21T01:20:24.464Z,101526.69
2019-02-21T01:22:53.418Z,101529.59
2019-02-21T01:25:22.289Z,101537.81
2019-02-21T01:27:51.064Z,101539.97
2019-02-21T01:30:20.088Z,101539.97
2019-02-21T01:32:49.041Z,101534.91
2019-02-21T01:35:17.932Z,101538.87
2019-02-21T01:37:46.868Z,101538.30
2019-02-21T01:40:15.739Z,101526.73
2019-02-21T01:42:44.676Z,101530.33
2019-02-21T01:45:13.755Z,101531.05
2019-02-21T01:47:42.648Z,101535.13
2019-02-21T01:50:11.646Z,101533.47
2019-02-21T01:52:40.601Z,101536.85
2019-02-21T01:55:10.351Z,101534.89
2019-02-21T01:57:39.131Z,101538.52
2019-02-21T02:00:10.136Z,101541.41
2019-02-21T02:02:39.112Z,101532.95
2019-02-21T02:05:09.134Z,101543.91
2019-02-21T02:07:38.391Z,101531.50
2019-02-21T02:10:08.293Z,101542.67
2019-02-21T02:12:37.424Z,101545.66
2019-02-21T02:15:07.318Z,101556.52
2019-02-21T02:17:36.319Z,101563.63
2019-02-21T02:20:05.610Z,101571.03
2019-02-21T02:22:34.559Z,101570.19
2019-02-21T02:25:03.628Z,101560.31
2019-02-21T02:27:32.648Z,101563.80
2019-02-21T02:30:01.441Z,101560.58
2019-02-21T02:32:30.250Z,101566.22
2019-02-21T02:34:59.957Z,101548.41
2019-02-21T02:37:29.158Z,101548.41
2019-02-21T02:39:58.052Z,101552.86
2019-02-21T02:42:26.947Z,101545.73
2019-02-21T02:44:55.919Z,101548.17
2019-02-21T02:47:24.784Z,101554.41
2019-02-21T02:49:53.634Z,101551.05
2019-02-21T02:52:22.511Z,101553.20
2019-02-21T02:54:51.441Z,101549.59
2019-02-21T02:57:20.223Z,101549.00
2019-02-21T02:59:49.235Z,101550.92
2019-02-21T03:02:18.311Z,101558.16
2019-02-21T03:04:47.215Z,101543.58
2019-02-21T03:07:16.506Z,101565.73
2019-02-21T03:09:45.526Z,101561.84
2019-02-21T03:12:14.736Z,101565.32
2019-02-21T03:14:43.636Z,101564.13
2019-02-21T03:17:12.555Z,101574.59
2019-02-21T03:19:41.382Z,101568.67
2019-02-21T03:22:10.348Z,101564.96
2019-02-21T03:24:39.249Z,101570.01
2019-02-21T03:27:08.138Z,101569.30
2019-02-21T03:29:37.042Z,101563.03
2019-02-21T03:32:06.067Z,101562.69
2019-02-21T03:34:35.397Z,101555.97
2019-02-21T03:37:04.224Z,101568.15
2019-02-21T03:39:33.210Z,101564.05
2019-02-21T03:42:02.202Z,101565.62
2019-02-21T03:44:31.201Z,101565.98
2019-02-21T03:47:00.026Z,101564.89
2019-02-21T03:49:28.899Z,101559.45
2019-02-21T03:51:57.692Z,101574.38
2019-02-21T03:54:26.628Z,101561.03
2019-02-21T03:56:56.475Z,101566.66
2019-02-21T03:59:25.498Z,101564.11
2019-02-21T04:02:04.875Z,101560.50
2019-02-21T04:04:25.034Z,101562.86
2019-02-21T04:06:53.982Z,101562.84
2019-02-21T04:09:22.793Z,101564.86
2019-02-21T04:11:51.729Z,101569.07
2019-02-21T04:14:21.180Z,101567.00
2019-02-21T04:16:50.281Z,101577.01
2019-02-21T04:19:19.126Z,101576.53
2019-02-21T04:21:47.982Z,101567.94
2019-02-21T04:24:16.891Z,101563.61
2019-02-21T04:26:45.924Z,101559.93
2019-02-21T04:29:15.168Z,101555.34
2019-02-21T04:31:44.127Z,101555.67
2019-02-21T04:34:12.878Z,101555.31
2019-02-21T04:36:41.789Z,101550.66
2019-02-21T04:39:10.633Z,101559.45
2019-02-21T04:41:39.661Z,101556.48
2019-02-21T04:44:08.564Z,101552.37
2019-02-21T04:46:37.540Z,101563.91
2019-02-21T04:49:06.396Z,101565.98
2019-02-21T04:51:35.320Z,101569.46
2019-02-21T04:54:04.288Z,101570.43
2019-02-21T04:56:33.229Z,101571.63
2019-02-21T04:59:02.184Z,101571.12
2019-02-21T05:01:31.154Z,101574.16
2019-02-21T05:04:00.119Z,101582.00
2019-02-21T05:06:29.090Z,101581.16
2019-02-21T05:08:57.925Z,101578.98
2019-02-21T05:11:26.857Z,101571.52
2019-02-21T05:13:57.709Z,101567.55
2019-02-21T05:16:26.530Z,101574.53
2019-02-21T05:18:55.504Z,101577.67
2019-02-21T05:21:24.482Z,101536.95
2019-02-21T05:23:53.484Z,101580.55
2019-02-21T05:26:28.357Z,101569.72
2019-02-21T05:28:57.237Z,101581.02
2019-02-21T05:31:42.533Z,101572.84
2019-02-21T05:34:26.200Z,101573.31
2019-02-21T05:37:02.167Z,101573.19
2019-02-21T05:39:50.060Z,101581.40
2019-02-21T05:42:31.873Z,101572.70
2019-02-21T05:45:38.081Z,101581.50
2019-02-21T05:48:40.265Z,101580.31
2019-02-21T05:51:23.752Z,101576.56
2019-02-21T05:54:14.788Z,101575.73
2019-02-21T05:57:01.595Z,101575.12
2019-02-21T06:00:07.794Z,101571.53
2019-02-21T06:02:58.263Z,101572.37
2019-02-21T06:05:36.157Z,101577.06
2019-02-21T06:08:22.948Z,101579.45
2019-02-21T06:11:19.783Z,101577.16
2019-02-21T06:13:56.780Z,101573.67
2019-02-21T06:16:50.132Z,101576.09
2019-02-21T06:19:56.237Z,101579.46
2019-02-21T06:22:47.524Z,101577.77
2019-02-21T06:25:50.553Z,101579.94
2019-02-21T06:28:20.873Z,101578.12
2019-02-21T06:30:53.478Z,101576.35
2019-02-21T06:33:23.405Z,101571.41
2019-02-21T06:35:52.411Z,101555.25
2019-02-21T06:38:21.497Z,101574.54
2019-02-21T06:40:50.537Z,101582.23
2019-02-21T06:43:19.487Z,101577.67
2019-02-21T06:45:48.488Z,101581.39
2019-02-21T06:48:17.395Z,101592.58
2019-02-21T06:50:47.737Z,101579.20
2019-02-21T06:53:16.699Z,101592.81
2019-02-21T06:55:45.504Z,101587.73
2019-02-21T06:58:14.425Z,101594.21
2019-02-21T07:00:43.498Z,101599.87
2019-02-21T07:03:15.845Z,101595.05
2019-02-21T07:05:43.549Z,101598.22
2019-02-21T07:08:12.538Z,101608.77
2019-02-21T07:10:41.513Z,101602.33
2019-02-21T07:13:12.366Z,101606.22
2019-02-21T07:15:41.426Z,101595.18
2019-02-21T07:18:11.183Z,101595.76
2019-02-21T07:20:40.028Z,101600.28
2019-02-21T07:23:11.241Z,101601.70
2019-02-21T07:25:51.345Z,101602.28
2019-02-21T07:28:20.277Z,101619.02
2019-02-21T07:30:50.273Z,101626.83
2019-02-21T07:33:27.748Z,101616.37
2019-02-21T07:35:49.872Z,101629.77
2019-02-21T07:38:18.795Z,101638.78
2019-02-21T07:40:47.651Z,101637.37
2019-02-21T07:43:16.771Z,101641.64
2019-02-21T07:45:45.788Z,101648.28
2019-02-21T07:48:14.697Z,101648.28
2019-02-21T07:50:43.707Z,101657.23
2019-02-21T07:53:12.712Z,101660.36
2019-02-21T07:55:41.644Z,101666.10
2019-02-21T07:58:10.605Z,101669.73
2019-02-21T08:00:39.524Z,101668.13
2019-02-21T08:03:09.292Z,101664.42
2019-02-21T08:05:38.811Z,101660.98
2019-02-21T08:08:09.293Z,101662.19
2019-02-21T08:10:38.876Z,101664.94
2019-02-21T08:13:08.040Z,101670.58
2019-02-21T08:15:37.171Z,101669.70
2019-02-21T08:18:06.087Z,101672.25
2019-02-21T08:20:40.626Z,101684.24
2019-02-21T08:23:05.753Z,101680.19
2019-02-21T08:25:34.672Z,101677.84
2019-02-21T08:28:03.544Z,101678.73
2019-02-21T08:30:33.113Z,101678.68
2019-02-21T08:33:15.495Z,101676.84
2019-02-21T08:35:44.363Z,101677.41
2019-02-21T08:38:13.379Z,101685.11
2019-02-21T08:40:42.286Z,101686.95
2019-02-21T08:43:11.205Z,101691.97
2019-02-21T08:45:40.051Z,101688.06
2019-02-21T08:48:09.044Z,101688.06
2019-02-21T08:50:38.008Z,101686.84
2019-02-21T08:53:06.918Z,101690.73
2019-02-21T08:55:35.978Z,101676.61
2019-02-21T08:58:06.059Z,101679.77
2019-02-21T09:00:35.987Z,101686.73
2019-02-21T09:03:04.945Z,101687.19
2019-02-21T09:05:33.977Z,101694.91
2019-02-21T09:08:03.463Z,101695.20
2019-02-21T09:10:32.491Z,101697.13
2019-02-21T09:13:01.394Z,101702.71
2019-02-21T09:15:30.181Z,101703.45
2019-02-21T09:18:00.032Z,101701.78
2019-02-21T09:20:28.985Z,101705.92
2019-02-21T09:22:57.777Z,101711.75
2019-02-21T09:25:26.703Z,101721.63
2019-02-21T09:27:55.746Z,101716.90
2019-02-21T09:30:24.646Z,101715.56
2019-02-21T09:32:53.643Z,101714.11
2019-02-21T09:35:22.647Z,101705.93
2019-02-21T09:37:51.544Z,101697.38
2019-02-21T09:40:20.479Z,101693.17
2019-02-21T09:42:49.471Z,101693.17
2019-02-21T09:45:18.626Z,101706.27
2019-02-21T09:47:47.691Z,101710.98
2019-02-21T09:50:16.811Z,101715.30
2019-02-21T09:52:45.700Z,101667.70
2019-02-21T09:55:15.745Z,101710.22
2019-02-21T09:57:44.721Z,101710.38
2019-02-21T10:00:16.176Z,101713.28
2019-02-21T10:02:44.968Z,101714.66
2019-02-21T10:05:14.048Z,101711.98
2019-02-21T10:07:43.062Z,101709.55
2019-02-21T10:10:14.440Z,101713.84
2019-02-21T10:12:43.860Z,101708.03
2019-02-21T10:15:13.902Z,101714.31
2019-02-21T10:17:45.465Z,101704.33
2019-02-21T10:20:17.217Z,101705.45
2019-02-21T10:22:46.216Z,101708.03
2019-02-21T10:25:17.944Z,101705.11
2019-02-21T10:27:46.930Z,101717.10
2019-02-21T10:30:17.337Z,101715.19
2019-02-21T10:32:46.314Z,101714.11
2019-02-21T10:35:15.408Z,101722.84
2019-02-21T10:37:44.428Z,101723.80
2019-02-21T10:40:13.495Z,101724.87
2019-02-21T10:42:42.565Z,101721.20
2019-02-21T10:45:14.008Z,101725.55
2019-02-21T10:47:43.051Z,101730.22
2019-02-21T10:50:14.980Z,101721.02
2019-02-21T10:52:44.396Z,101722.69
2019-02-21T10:55:14.220Z,101718.55
2019-02-21T10:57:45.495Z,101720.12
2019-02-21T11:00:18.830Z,101713.45
2019-02-21T11:02:48.301Z,101716.47
2019-02-21T11:05:17.452Z,101719.66
2019-02-21T11:07:46.352Z,101712.80
2019-02-21T11:10:18.917Z,101718.14
2019-02-21T11:12:47.084Z,101711.93
2019-02-21T11:15:16.441Z,101712.11
2019-02-21T11:17:45.524Z,101715.48
2019-02-21T11:20:15.929Z,101707.41
2019-02-21T11:22:45.059Z,101702.05
2019-02-21T11:25:14.163Z,101707.23
2019-02-21T11:27:43.425Z,101709.07
2019-02-21T11:30:15.027Z,101709.23
2019-02-21T11:32:43.975Z,101711.43
2019-02-21T11:35:13.729Z,101704.05
2019-02-21T11:37:46.566Z,101700.05
2019-02-21T11:40:15.366Z,101700.05
2019-02-21T11:42:44.503Z,101694.48
2019-02-21T11:45:15.117Z,101694.81
2019-02-21T11:47:44.262Z,101696.27
2019-02-21T11:50:15.187Z,101685.56
2019-02-21T11:52:44.183Z,101684.47
2019-02-21T11:55:16.035Z,101686.64
2019-02-21T11:57:44.983Z,101681.13
2019-02-21T12:00:19.461Z,101677.72
2019-02-21T12:02:48.484Z,101672.71
2019-02-21T12:05:19.563Z,101681.83
2019-02-21T12:07:48.632Z,101683.78
2019-02-21T12:10:17.679Z,101682.02
2019-02-21T12:12:46.853Z,101682.33
2019-02-21T12:15:16.125Z,101677.80
2019-02-21T12:17:45.224Z,101670.50
2019-02-21T12:20:14.901Z,101662.89
2019-02-21T12:22:43.973Z,101659.65
2019-02-21T12:25:14.421Z,101648.77
2019-02-21T12:27:43.634Z,101654.22
2019-02-21T12:30:14.890Z,101634.63
2019-02-21T12:32:44.019Z,101609.85
2019-02-21T12:35:13.323Z,101610.34
2019-02-21T12:37:42.328Z,101612.03
2019-02-21T12:40:13.595Z,101620.51
2019-02-21T12:42:42.652Z,101629.63
2019-02-21T12:45:13.428Z,101629.95
2019-02-21T12:47:50.985Z,101638.59
2019-02-21T12:50:13.379Z,101634.75
2019-02-21T12:52:42.454Z,101642.05
2019-02-21T12:55:11.531Z,101641.82
2019-02-21T12:57:40.507Z,101638.52
2019-02-21T13:00:12.637Z,101632.41
2019-02-21T13:02:41.777Z,101626.88
2019-02-21T13:05:10.992Z,101640.73
2019-02-21T13:07:39.904Z,101642.61
2019-02-21T13:10:13.244Z,101642.88
2019-02-21T13:12:42.340Z,101639.55
2019-02-21T13:15:12.800Z,101645.80
2019-02-21T13:17:41.893Z,101652.33
2019-02-21T13:20:11.296Z,101649.56
2019-02-21T13:22:40.333Z,101649.12
2019-02-21T13:25:10.528Z,101641.52
2019-02-21T13:27:39.567Z,101638.88
2019-02-21T13:30:11.280Z,101640.20
2019-02-21T13:32:40.393Z,101640.88
2019-02-21T13:35:10.520Z,101629.17
2019-02-21T13:37:39.607Z,101629.23
2019-02-21T13:40:10.426Z,101626.13
2019-02-21T13:42:39.392Z,101624.59
2019-02-21T13:45:09.454Z,101630.69
2019-02-21T13:47:39.212Z,101627.02
2019-02-21T13:50:11.502Z,101628.53
2019-02-21T13:52:40.611Z,101623.51
2019-02-21T13:55:09.595Z,101616.86
2019-02-21T13:57:38.727Z,101619.40
2019-02-21T14:00:11.100Z,101618.11
2019-02-21T14:02:40.209Z,101606.69
2019-02-21T14:05:09.274Z,101603.78
2019-02-21T14:07:38.235Z,101595.68
2019-02-21T14:10:07.972Z,101602.72
2019-02-21T14:12:36.840Z,101605.31
2019-02-21T14:15:07.763Z,101598.88
2019-02-21T14:17:36.819Z,101589.09
2019-02-21T14:20:06.180Z,101585.78
2019-02-21T14:22:35.293Z,101590.79
2019-02-21T14:25:04.890Z,101598.64
2019-02-21T14:27:33.939Z,101593.50
2019-02-21T14:30:03.008Z,101594.56
2019-02-21T14:32:31.939Z,101590.53
2019-02-21T14:35:00.984Z,101590.26
2019-02-21T14:37:29.929Z,101592.95
2019-02-21T14:39:58.958Z,101595.84
2019-02-21T14:42:28.093Z,101585.49
2019-02-21T14:44:57.099Z,101584.88
2019-02-21T14:47:26.093Z,101580.78
2019-02-21T14:49:55.128Z,101585.98
2019-02-21T14:52:24.145Z,101583.61
2019-02-21T14:54:53.160Z,101589.27
2019-02-21T14:57:22.130Z,101591.38
2019-02-21T14:59:51.262Z,101586.92
2019-02-21T15:02:20.283Z,101584.43
2019-02-21T15:04:49.264Z,101589.22
2019-02-21T15:07:18.307Z,101575.96
2019-02-21T15:09:47.409Z,101580.70
2019-02-21T15:12:16.391Z,101590.31
2019-02-21T15:14:45.392Z,101586.37
2019-02-21T15:17:14.398Z,101574.13
2019-02-21T15:19:43.384Z,101572.64
2019-02-21T15:22:13.788Z,101565.17
2019-02-21T15:24:42.990Z,101570.12
2019-02-21T15:27:11.912Z,101579.27
2019-02-21T15:29:41.718Z,101579.27
2019-02-21T15:32:13.456Z,101574.16
2019-02-21T15:34:41.676Z,101581.67
2019-02-21T15:37:10.786Z,101586.06
2019-02-21T15:39:42.766Z,101584.59
2019-02-21T15:42:10.744Z,101586.53
2019-02-21T15:44:39.845Z,101589.83
2019-02-21T15:47:08.803Z,101594.45
2019-02-21T15:49:38.216Z,101596.27
2019-02-21T15:52:07.220Z,101600.45
2019-02-21T15:54:36.373Z,101592.09
2019-02-21T15:57:05.369Z,101601.40
2019-02-21T15:59:34.467Z,101598.23
2019-02-21T16:02:03.675Z,101598.74
2019-02-21T16:04:35.291Z,101601.44
2019-02-21T16:07:03.672Z,101607.98
2019-02-21T16:09:32.575Z,101612.34
2019-02-21T16:12:01.695Z,101608.86
2019-02-21T16:14:30.690Z,101610.84
2019-02-21T16:16:59.696Z,101610.84
2019-02-21T16:19:28.826Z,101610.89
2019-02-21T16:21:57.894Z,101576.06
2019-02-21T16:24:26.938Z,101614.25
2019-02-21T16:26:55.999Z,101621.70
2019-02-21T16:29:26.027Z,101619.75
2019-02-21T16:31:55.076Z,101625.38
2019-02-21T16:34:24.086Z,101623.59
2019-02-21T16:37:02.129Z,101618.75
2019-02-21T16:39:23.833Z,101621.98
2019-02-21T16:41:52.638Z,101620.71
2019-02-21T16:44:21.808Z,101618.38
2019-02-21T16:46:50.830Z,101624.78
2019-02-21T16:49:19.962Z,101634.40
2019-02-21T16:51:48.759Z,101643.66
2019-02-21T16:54:17.703Z,101642.00
2019-02-21T16:56:46.538Z,101642.61
2019-02-21T16:59:15.449Z,101639.81
2019-02-21T17:01:44.818Z,101639.72
2019-02-21T17:04:13.901Z,101634.72
2019-02-21T17:06:42.802Z,101637.63
2019-02-21T17:09:11.788Z,101637.33
2019-02-21T17:11:40.986Z,101643.41
2019-02-21T17:14:10.305Z,101642.95
2019-02-21T17:16:39.220Z,101647.70
2019-02-21T17:19:08.713Z,101647.70
2019-02-21T17:21:37.624Z,101663.02
2019-02-21T17:24:06.613Z,101665.42
2019-02-21T17:26:36.576Z,101665.42
2019-02-21T17:29:05.575Z,101671.50
2019-02-21T17:31:34.588Z,101662.35
2019-02-21T17:34:03.552Z,101673.31
2019-02-21T17:36:32.822Z,101666.30
2019-02-21T17:39:01.993Z,101665.19
2019-02-21T17:41:31.291Z,101669.70
2019-02-21T17:44:03.240Z,101671.39
2019-02-21T17:46:32.330Z,101670.39
2019-02-21T17:49:01.286Z,101671.42
2019-02-21T17:51:30.614Z,101678.00
2019-02-21T17:53:59.483Z,101683.56
2019-02-21T17:56:28.516Z,101687.27
2019-02-21T17:58:57.603Z,101679.73
2019-02-21T18:01:26.564Z,101604.97
2019-02-21T18:03:55.685Z,101694.00
2019-02-21T18:06:26.332Z,101687.30
2019-02-21T18:08:55.353Z,101687.30
2019-02-21T18:11:24.561Z,101685.16
2019-02-21T18:13:53.546Z,101685.69
2019-02-21T18:16:22.472Z,101687.40
2019-02-21T18:18:51.501Z,101690.95
2019-02-21T18:21:20.536Z,101689.11
2019-02-21T18:23:49.567Z,101687.80
2019-02-21T18:26:19.640Z,101686.46
2019-02-21T18:28:48.573Z,101678.77
2019-02-21T18:31:17.674Z,101688.83
2019-02-21T18:33:46.592Z,101689.34
2019-02-21T18:36:15.511Z,101693.22
2019-02-21T18:38:44.451Z,101698.23
2019-02-21T18:41:13.393Z,101695.17
2019-02-21T18:43:42.538Z,101692.81
2019-02-21T18:46:11.535Z,101695.83
2019-02-21T18:48:40.431Z,101701.56
2019-02-21T18:51:09.468Z,101694.85
2019-02-21T18:53:38.564Z,101702.44
2019-02-21T18:56:08.353Z,101700.59
2019-02-21T18:58:37.293Z,101703.96
2019-02-21T19:01:07.422Z,101703.45
2019-02-21T19:03:36.424Z,101706.32
2019-02-21T19:06:05.511Z,101701.31
2019-02-21T19:08:34.510Z,101705.67
2019-02-21T19:11:03.516Z,101707.66
2019-02-21T19:13:32.441Z,101709.01
2019-02-21T19:16:01.485Z,101711.30
2019-02-21T19:18:30.390Z,101707.63
2019-02-21T19:20:59.538Z,101702.77
2019-02-21T19:23:28.514Z,101709.70
2019-02-21T19:25:57.509Z,101705.59
2019-02-21T19:28:26.491Z,101706.32
2019-02-21T19:31:08.297Z,101704.17
2019-02-21T19:33:37.509Z,101713.59
2019-02-21T19:36:06.449Z,101717.75
2019-02-21T19:38:35.407Z,101719.09
2019-02-21T19:41:04.404Z,101722.77
2019-02-21T19:43:33.508Z,101715.27
2019-02-21T19:46:02.508Z,101717.80
2019-02-21T19:48:31.378Z,101725.16
2019-02-21T19:51:00.227Z,101723.48
2019-02-21T19:53:29.269Z,101730.22
2019-02-21T19:55:58.317Z,101731.21
2019-02-21T19:58:27.531Z,101733.23
2019-02-21T20:00:56.521Z,101733.23
2019-02-21T20:03:25.329Z,101731.90
2019-02-21T20:05:54.477Z,101736.10
2019-02-21T20:08:23.472Z,101731.22
2019-02-21T20:10:52.459Z,101736.09
2019-02-21T20:13:21.457Z,101736.09
2019-02-21T20:15:50.488Z,101739.94
2019-02-21T20:18:19.472Z,101736.24
2019-02-21T20:20:49.203Z,101743.80
2019-02-21T20:23:18.359Z,101745.48
2019-02-21T20:25:47.355Z,101743.65
2019-02-21T20:28:16.374Z,101752.86
2019-02-21T20:30:45.427Z,101754.38
2019-02-21T20:33:14.608Z,101749.66
2019-02-21T20:35:43.563Z,101758.08
2019-02-21T20:38:12.602Z,101760.06
2019-02-21T20:40:41.434Z,101764.42
2019-02-21T20:43:10.377Z,101760.92
2019-02-21T20:45:39.377Z,101763.10
2019-02-21T20:48:08.394Z,101773.33
2019-02-21T20:50:37.399Z,101767.12
2019-02-21T20:53:06.468Z,101770.13
2019-02-21T20:55:43.393Z,101772.13
2019-02-21T20:58:06.366Z,101779.70
2019-02-21T21:00:35.387Z,101779.53
2019-02-21T21:03:04.419Z,101783.04
2019-02-21T21:05:33.409Z,101789.59
2019-02-21T21:08:02.388Z,101791.59
2019-02-21T21:10:31.337Z,101798.33
2019-02-21T21:13:00.348Z,101794.62
2019-02-21T21:15:29.352Z,101793.61
2019-02-21T21:17:58.185Z,101759.41
2019-02-21T21:20:27.182Z,101800.50
2019-02-21T21:22:56.087Z,101800.66
2019-02-21T21:25:25.016Z,101806.70
2019-02-21T21:27:54.118Z,101808.88
2019-02-21T21:30:23.187Z,101812.72
2019-02-21T21:32:53.132Z,101809.71
2019-02-21T21:35:22.189Z,101807.53
2019-02-21T21:37:51.180Z,101815.25
2019-02-21T21:40:20.443Z,101817.77
2019-02-21T21:42:49.732Z,101819.09
2019-02-21T21:45:18.977Z,101814.06
2019-02-21T21:47:47.991Z,101818.94
2019-02-21T21:50:17.408Z,101820.61
2019-02-21T21:52:46.339Z,101823.95
2019-02-21T21:55:15.371Z,101829.50
2019-02-21T21:57:44.503Z,101832.85
2019-02-21T22:00:17.990Z,101841.83
2019-02-21T22:02:47.163Z,101834.14
2019-02-21T22:05:16.197Z,101835.34
2019-02-21T22:07:45.246Z,101844.70
2019-02-21T22:10:14.628Z,101841.55
2019-02-21T22:12:43.634Z,101845.42
2019-02-21T22:15:13.180Z,101844.92
2019-02-21T22:17:42.337Z,101840.54
2019-02-21T22:20:11.284Z,101836.83
2019-02-21T22:22:40.260Z,101834.47
2019-02-21T22:25:10.493Z,101833.63
2019-02-21T22:27:39.613Z,101840.48
2019-02-21T22:30:11.043Z,101843.72
2019-02-21T22:32:40.131Z,101849.20
2019-02-21T22:35:09.946Z,101848.88
2019-02-21T22:37:38.982Z,101847.83
2019-02-21T22:40:09.481Z,101848.85
2019-02-21T22:42:38.499Z,101854.58
2019-02-21T22:45:07.764Z,101861.25
2019-02-21T22:47:36.896Z,101865.95
2019-02-21T22:50:07.477Z,101873.30
2019-02-21T22:52:36.419Z,101868.91
2019-02-21T22:55:09.716Z,101865.30
2019-02-21T22:57:36.865Z,101870.16
2019-02-21T23:00:50.362Z,101863.29
2019-02-21T23:03:19.355Z,101852.88
2019-02-21T23:06:05.812Z,101844.63
2019-02-21T23:08:53.906Z,101840.34
2019-02-21T23:11:23.341Z,101831.11
2019-02-21T23:13:52.421Z,101838.28
2019-02-21T23:16:21.576Z,101837.55
2019-02-21T23:18:56.312Z,101837.05
2019-02-21T23:21:25.749Z,101824.77
2019-02-21T23:23:54.833Z,101839.64
2019-02-21T23:26:25.361Z,101840.31
2019-02-21T23:28:54.428Z,101831.88
2019-02-21T23:31:23.215Z,101836.19
2019-02-21T23:33:55.499Z,101837.94
2019-02-21T23:36:24.478Z,101839.61
2019-02-21T23:38:53.472Z,101844.23
2019-02-21T23:41:22.492Z,101849.48
2019-02-21T23:43:51.479Z,101850.77
2019-02-21T23:46:20.884Z,101852.47
2019-02-21T23:48:49.680Z,101858.80
2019-02-21T23:51:18.579Z,101863.52
2019-02-21T23:53:47.583Z,101872.30
2019-02-21T23:56:16.631Z,101859.89
2019-02-21T23:58:45.543Z,101864.72
